Time;durP1;ratioP1;P1;durP2;ratioP2;P2;SDS_P1;SDS_P2;PMS_P1;PMS_P2;Temp;Humidity;BMP_temperature;BMP_pressure;BME280_temperature;BME280_humidity;BME280_pressure;Samples;Min_cycle;Max_cycle;Signal;HPM_P1;HPM_P2
2023/06/28 00:01:03;;;;;;;14.85;7.90;;;;;;;;;;2515395;23;20321;-86
2023/06/28 00:02:24;;;;;;;13.13;7.00;;;;;;;;;;2515643;23;20487;-87
2023/06/28 00:03:49;;;;;;;14.52;7.85;;;;;;;;;;2498110;23;20025;-94
2023/06/28 00:05:30;;;;;;;14.73;7.45;;;;;;;;;;2517182;23;20420;-94
2023/06/28 00:07:01;;;;;;;16.17;7.40;;;;;;;;;;2521429;23;20006;-95
2023/06/28 00:10:20;;;;;;;19.88;7.88;;;;;;;;;;2533337;23;20013;-96
2023/06/28 00:12:11;;;;;;;18.55;7.15;;;;;;;;;;2522225;23;20372;-96
2023/06/28 00:14:02;;;;;;;17.45;8.18;;;;;;;;;;2518582;23;20014;-95
2023/06/28 00:15:33;;;;;;;14.52;7.38;;;;;;;;;;2522699;23;20022;-95
2023/06/28 00:17:27;;;;;;;11.95;7.35;;;;;;;;;;2519693;23;20030;-94
2023/06/28 00:18:48;;;;;;;15.07;8.23;;;;;;;;;;2499268;23;20010;-96
2023/06/28 00:20:25;;;;;;;12.00;7.45;;;;;;;;;;2519180;23;20021;-95
2023/06/28 00:22:09;;;;;;;;;;;;;;;;;;;;;
2023/06/28 00:23:30;;;;;;;14.00;7.90;;;;;;;;;;2519520;23;20025;-95
2023/06/28 00:24:51;;;;;;;13.98;7.15;;;;;;;;;;2522938;23;20383;-96
2023/06/28 00:26:12;;;;;;;14.05;7.60;;;;;;;;;;2518724;23;20010;-95
2023/06/28 00:27:33;;;;;;;13.98;7.28;;;;;;;;;;2519520;23;20051;-95
2023/06/28 00:28:54;;;;;;;17.13;8.30;;;;;;;;;;2516798;23;20013;-95
2023/06/28 00:30:26;;;;;;;9.60;7.53;;;;;;;;;;2516800;23;20018;-95
2023/06/28 00:32:01;;;;;;;21.08;8.25;;;;;;;;;;2518985;23;20012;-96
2023/06/28 00:33:22;;;;;;;51.83;17.38;;;;;;;;;;2508929;23;20014;-94
2023/06/28 00:35:01;;;;;;;14.63;7.57;;;;;;;;;;2516960;23;20018;-95
2023/06/28 00:36:46;;;;;;;14.38;7.72;;;;;;;;;;2519449;23;20471;-95
2023/06/28 00:38:25;;;;;;;13.02;7.55;;;;;;;;;;2520811;23;20010;-95
2023/06/28 00:40:18;;;;;;;18.08;7.88;;;;;;;;;;2520167;23;20011;-95
2023/06/28 00:41:46;;;;;;;13.02;7.38;;;;;;;;;;2520056;23;20058;-94
2023/06/28 00:43:07;;;;;;;15.02;7.30;;;;;;;;;;2521824;23;20037;-96
2023/06/28 00:44:42;;;;;;;13.05;7.22;;;;;;;;;;2514497;23;20395;-85
2023/06/28 00:46:03;;;;;;;12.85;7.72;;;;;;;;;;2518007;23;20021;-86
2023/06/28 00:47:24;;;;;;;13.55;6.60;;;;;;;;;;2516741;23;20393;-87
2023/06/28 00:48:45;;;;;;;11.47;6.93;;;;;;;;;;2514256;23;20011;-86
2023/06/28 00:50:10;;;;;;;11.82;7.28;;;;;;;;;;2515842;23;20409;-86
2023/06/28 00:51:31;;;;;;;16.33;7.93;;;;;;;;;;2515373;23;20011;-87
2023/06/28 00:52:52;;;;;;;15.63;7.77;;;;;;;;;;2518132;23;20010;-86
2023/06/28 00:54:13;;;;;;;13.45;7.88;;;;;;;;;;2515683;23;20417;-86
2023/06/28 00:55:34;;;;;;;11.68;6.85;;;;;;;;;;2517285;23;20041;-86
2023/06/28 00:56:56;;;;;;;16.48;7.50;;;;;;;;;;2514973;23;20416;-86
2023/06/28 00:58:19;;;;;;;19.23;8.98;;;;;;;;;;2515989;23;20385;-86
2023/06/28 00:59:44;;;;;;;10.75;7.28;;;;;;;;;;2517291;23;20007;-86
2023/06/28 01:01:06;;;;;;;12.15;7.20;;;;;;;;;;2516539;23;20014;-86
2023/06/28 01:02:29;;;;;;;13.55;6.78;;;;;;;;;;2516014;23;20014;-86
2023/06/28 01:04:02;;;;;;;19.13;8.43;;;;;;;;;;2498359;23;20445;-87
2023/06/28 01:05:32;;;;;;;11.10;7.43;;;;;;;;;;2519277;23;20420;-86
2023/06/28 01:09:10;;;;;;;14.65;7.75;;;;;;;;;;2534653;23;19998;-86
2023/06/28 01:13:00;;;;;;;;;;;;;;;;;;;;;
2023/06/28 01:20:30;;;;;;;13.90;7.07;;;;;;;;;;2533965;23;20013;-86
2023/06/28 01:21:54;;;;;;;11.45;6.85;;;;;;;;;;2519510;23;20021;-86
2023/06/28 01:26:03;;;;;;;10.25;7.05;;;;;;;;;;2507328;23;20017;-86
2023/06/28 01:27:37;;;;;;;;;;;;;;;;;;;;;
2023/06/28 01:29:14;;;;;;;18.10;8.48;;;;;;;;;;2486365;23;20084;-86
2023/06/28 01:30:44;;;;;;;15.95;7.45;;;;;;;;;;2475221;23;20008;-86
2023/06/28 01:32:18;;;;;;;;;;;;;;;;;;;;;
2023/06/28 01:33:42;;;;;;;11.68;7.63;;;;;;;;;;2485853;23;20020;-86
2023/06/28 01:35:03;;;;;;;12.30;6.82;;;;;;;;;;2484633;23;20019;-87
2023/06/28 01:36:24;;;;;;;10.70;6.17;;;;;;;;;;2522545;23;20357;-86
2023/06/28 01:37:49;;;;;;;11.50;7.50;;;;;;;;;;2516549;23;20381;-86
2023/06/28 01:39:10;;;;;;;11.95;7.72;;;;;;;;;;2530268;23;20010;-86
2023/06/28 01:40:35;;;;;;;19.40;7.57;;;;;;;;;;2520072;23;20129;-86
2023/06/28 01:41:59;;;;;;;11.75;7.22;;;;;;;;;;2518057;23;20010;-86
2023/06/28 01:43:21;;;;;;;14.52;7.47;;;;;;;;;;2517326;23;20348;-87
2023/06/28 01:44:49;;;;;;;14.45;8.82;;;;;;;;;;2494240;23;20061;-86
2023/06/28 01:46:10;;;;;;;13.70;8.20;;;;;;;;;;2517673;23;20017;-86
2023/06/28 01:47:31;;;;;;;18.38;8.23;;;;;;;;;;2527510;23;20271;-86
2023/06/28 01:48:52;;;;;;;10.68;7.82;;;;;;;;;;2519452;23;20464;-86
2023/06/28 01:52:22;;;;;;;14.40;7.03;;;;;;;;;;2533530;23;20002;-85
2023/06/28 01:53:43;;;;;;;14.98;7.57;;;;;;;;;;2519278;23;20026;-86
2023/06/28 01:55:04;;;;;;;13.50;7.03;;;;;;;;;;2514644;23;20136;-86
2023/06/28 01:56:25;;;;;;;10.35;6.93;;;;;;;;;;2517154;23;20037;-86
2023/06/28 01:58:12;;;;;;;11.02;7.30;;;;;;;;;;2517578;23;20325;-86
2023/06/28 01:59:35;;;;;;;14.63;7.80;;;;;;;;;;2521574;23;20014;-86
2023/06/28 02:00:56;;;;;;;13.45;7.32;;;;;;;;;;2516406;23;20010;-86
2023/06/28 02:02:16;;;;;;;10.43;6.38;;;;;;;;;;2517614;23;20021;-86
2023/06/28 02:03:59;;;;;;;;;;;;;;;;;;;;;
2023/06/28 02:06:01;;;;;;;;;;;;;;;;;;;;;
2023/06/28 02:07:44;;;;;;;13.40;7.68;;;;;;;;;;2510370;23;20014;-95
2023/06/28 02:09:05;;;;;;;10.82;7.45;;;;;;;;;;2499694;23;20008;-95
2023/06/28 02:10:26;;;;;;;14.77;7.95;;;;;;;;;;2496188;23;20018;-96
2023/06/28 02:12:05;;;;;;;15.70;7.53;;;;;;;;;;2495672;23;20023;-96
2023/06/28 02:13:52;;;;;;;14.07;8.15;;;;;;;;;;2510076;23;20151;-95
2023/06/28 02:15:21;;;;;;;14.90;7.53;;;;;;;;;;2490369;23;20101;-94
2023/06/28 02:17:13;;;;;;;14.25;7.72;;;;;;;;;;2520675;23;20010;-94
2023/06/28 02:18:42;;;;;;;16.25;8.15;;;;;;;;;;2510427;23;20017;-94
2023/06/28 02:20:29;;;;;;;14.52;7.40;;;;;;;;;;2501402;23;20015;-96
2023/06/28 02:22:14;;;;;;;9.95;7.25;;;;;;;;;;2507905;23;20473;-87
2023/06/28 02:23:34;;;;;;;14.15;7.93;;;;;;;;;;2509964;23;20021;-87
2023/06/28 02:24:55;;;;;;;27.73;14.68;;;;;;;;;;2480947;23;20473;-87
2023/06/28 02:26:16;;;;;;;16.73;7.85;;;;;;;;;;2493769;23;20015;-87
2023/06/28 02:27:48;;;;;;;21.20;8.25;;;;;;;;;;2504836;23;20123;-87
2023/06/28 02:29:38;;;;;;;13.80;8.48;;;;;;;;;;2495602;23;20298;-87
2023/06/28 02:31:05;;;;;;;14.20;7.75;;;;;;;;;;2497581;23;20030;-86
2023/06/28 02:32:53;;;;;;;16.08;7.68;;;;;;;;;;2493891;23;20106;-87
2023/06/28 02:34:34;;;;;;;;;;;;;;;;;;;;;
2023/06/28 02:35:56;;;;;;;12.20;7.43;;;;;;;;;;2495576;23;20022;-86
2023/06/28 02:37:17;;;;;;;19.90;8.05;;;;;;;;;;2496288;23;20008;-87
2023/06/28 02:38:41;;;;;;;15.55;7.65;;;;;;;;;;2495945;23;20034;-87
2023/06/28 02:40:02;;;;;;;16.45;8.32;;;;;;;;;;2497076;23;20011;-87
2023/06/28 02:41:25;;;;;;;19.05;8.50;;;;;;;;;;2485620;23;20015;-87
2023/06/28 02:42:46;;;;;;;;;;;;;;;;;;2494790;23;20114;-95
2023/06/28 02:44:22;;;;;;;11.02;8.02;;;;;;;;;;2499521;23;19902;-95
2023/06/28 02:46:01;;;;;;;13.45;8.88;;;;;;;;;;2474977;23;20034;-95
2023/06/28 02:47:48;;;;;;;17.15;8.50;;;;;;;;;;2478308;23;20012;-96
2023/06/28 02:49:12;;;;;;;13.82;7.95;;;;;;;;;;2463837;24;20008;-95
2023/06/28 02:50:33;;;;;;;18.83;8.35;;;;;;;;;;2462800;24;20324;-96
2023/06/28 02:51:54;;;;;;;17.58;8.38;;;;;;;;;;2465083;24;20019;-96
2023/06/28 02:53:21;;;;;;;13.32;7.90;;;;;;;;;;2472240;24;20100;-95
2023/06/28 02:54:50;;;;;;;15.43;8.55;;;;;;;;;;2465088;24;20416;-95
2023/06/28 02:56:15;;;;;;;14.65;8.15;;;;;;;;;;2472946;24;20023;-95
2023/06/28 02:57:43;;;;;;;14.93;7.97;;;;;;;;;;2469507;24;20013;-96
2023/06/28 02:59:10;;;;;;;13.55;7.88;;;;;;;;;;2483771;23;20442;-95
2023/06/28 03:00:58;;;;;;;15.55;8.32;;;;;;;;;;2468626;24;20016;-95
2023/06/28 03:03:04;;;;;;;;;;;;;;;;;;;;;
2023/06/28 03:04:55;;;;;;;21.48;10.38;;;;;;;;;;2474330;24;20016;-95
2023/06/28 03:06:56;;;;;;;22.38;9.15;;;;;;;;;;2480887;23;20330;-94
2023/06/28 03:08:42;;;;;;;;;;;;;;;;;;;;;
2023/06/28 03:10:22;;;;;;;18.42;8.70;;;;;;;;;;2488316;23;20011;-94
2023/06/28 03:12:06;;;;;;;17.02;9.15;;;;;;;;;;2486035;23;20007;-95
2023/06/28 03:13:34;;;;;;;15.93;8.20;;;;;;;;;;2478333;24;20015;-96
2023/06/28 03:14:56;;;;;;;17.67;8.52;;;;;;;;;;2484835;23;20032;-95
2023/06/28 03:16:35;;;;;;;15.32;8.23;;;;;;;;;;2475594;23;20027;-96
2023/06/28 03:17:56;;;;;;;12.65;8.15;;;;;;;;;;2481944;23;20380;-96
2023/06/28 03:19:42;;;;;;;10.38;8.27;;;;;;;;;;2496438;23;20027;-96
2023/06/28 03:21:03;;;;;;;13.77;8.73;;;;;;;;;;2488322;23;20019;-95
2023/06/28 03:22:29;;;;;;;14.18;8.65;;;;;;;;;;2482338;23;20023;-96
2023/06/28 03:23:53;;;;;;;12.48;8.50;;;;;;;;;;2489996;23;20018;-96
2023/06/28 03:25:34;;;;;;;17.95;9.73;;;;;;;;;;2489162;23;20016;-96
2023/06/28 03:26:55;;;;;;;15.98;9.05;;;;;;;;;;2489411;23;20039;-96
2023/06/28 03:28:27;;;;;;;11.68;8.35;;;;;;;;;;2486751;23;20011;-96
2023/06/28 03:29:53;;;;;;;19.08;9.32;;;;;;;;;;2488420;23;20007;-95
2023/06/28 03:31:20;;;;;;;13.05;8.50;;;;;;;;;;2496334;23;20019;-95
2023/06/28 03:32:50;;;;;;;19.55;8.98;;;;;;;;;;2487631;23;20012;-96
2023/06/28 03:34:16;;;;;;;14.15;9.05;;;;;;;;;;2535247;23;20013;-96
2023/06/28 03:35:38;;;;;;;25.85;12.45;;;;;;;;;;2508477;23;20428;-95
2023/06/28 03:36:59;;;;;;;19.50;9.53;;;;;;;;;;2522125;23;20014;-95
2023/06/28 03:38:30;;;;;;;18.05;9.10;;;;;;;;;;2520017;23;20381;-94
2023/06/28 03:40:29;;;;;;;;;;;;;;;;;;;;;
2023/06/28 03:42:03;;;;;;;18.27;9.15;;;;;;;;;;2538321;23;20320;-94
2023/06/28 03:43:54;;;;;;;16.40;9.20;;;;;;;;;;2524191;23;20015;-96
2023/06/28 03:47:23;;;;;;;13.70;8.88;;;;;;;;;;2518091;23;20006;-94
2023/06/28 03:48:44;;;;;;;14.88;8.90;;;;;;;;;;2519320;23;20467;-70
2023/06/28 03:50:05;;;;;;;17.42;8.82;;;;;;;;;;2527490;23;20090;-70
2023/06/28 03:51:26;;;;;;;12.05;7.88;;;;;;;;;;2517882;23;20025;-70
2023/06/28 03:52:47;;;;;;;14.63;8.73;;;;;;;;;;2526620;23;20021;-71
2023/06/28 03:54:08;;;;;;;14.68;7.70;;;;;;;;;;2530484;23;20394;-71
2023/06/28 03:55:29;;;;;;;12.18;8.05;;;;;;;;;;2519843;23;20014;-71
2023/06/28 03:56:51;;;;;;;15.20;8.07;;;;;;;;;;2524360;23;20022;-70
2023/06/28 03:58:11;;;;;;;12.73;8.00;;;;;;;;;;2530947;23;20057;-70
2023/06/28 03:59:32;;;;;;;12.00;7.80;;;;;;;;;;2519632;23;20006;-70
2023/06/28 04:00:53;;;;;;;15.98;7.78;;;;;;;;;;2528345;23;20006;-70
2023/06/28 04:02:14;;;;;;;15.98;8.65;;;;;;;;;;2519577;23;20034;-70
2023/06/28 04:03:35;;;;;;;16.63;8.35;;;;;;;;;;2518075;23;20010;-70
2023/06/28 04:04:56;;;;;;;20.20;8.50;;;;;;;;;;2519398;23;20018;-70
2023/06/28 04:06:17;;;;;;;13.18;8.25;;;;;;;;;;2526594;23;20037;-69
2023/06/28 04:07:38;;;;;;;14.48;8.30;;;;;;;;;;2532253;23;20014;-70
2023/06/28 04:08:59;;;;;;;14.85;8.70;;;;;;;;;;2532631;23;20072;-70
2023/06/28 04:10:21;;;;;;;13.23;8.40;;;;;;;;;;2530987;23;20431;-70
2023/06/28 04:11:42;;;;;;;24.33;10.30;;;;;;;;;;2519352;23;20011;-70
2023/06/28 04:13:02;;;;;;;11.73;7.57;;;;;;;;;;2526622;23;20006;-70
2023/06/28 04:14:24;;;;;;;12.15;8.68;;;;;;;;;;2518405;23;20082;-70
2023/06/28 04:15:45;;;;;;;12.65;7.95;;;;;;;;;;2526663;23;20385;-70
2023/06/28 04:17:06;;;;;;;19.23;9.43;;;;;;;;;;2518289;23;20026;-70
2023/06/28 04:18:27;;;;;;;12.18;7.57;;;;;;;;;;2528992;23;20010;-70
2023/06/28 04:19:48;;;;;;;17.83;8.60;;;;;;;;;;2529204;23;20025;-70
2023/06/28 04:21:09;;;;;;;14.65;7.88;;;;;;;;;;2530555;23;20010;-72
2023/06/28 04:22:30;;;;;;;14.93;8.35;;;;;;;;;;2517229;23;20045;-70
2023/06/28 04:23:50;;;;;;;14.00;8.32;;;;;;;;;;2515354;23;20058;-70
2023/06/28 04:25:11;;;;;;;17.70;9.25;;;;;;;;;;2514657;23;20015;-70
2023/06/28 04:26:32;;;;;;;20.08;8.95;;;;;;;;;;2525572;23;20014;-70
2023/06/28 04:27:53;;;;;;;17.25;9.00;;;;;;;;;;2532247;23;20026;-70
2023/06/28 04:29:14;;;;;;;16.58;8.43;;;;;;;;;;2532545;23;20010;-70
2023/06/28 04:30:35;;;;;;;18.67;9.52;;;;;;;;;;2531383;23;20006;-70
2023/06/28 04:32:01;;;;;;;18.00;8.95;;;;;;;;;;2531978;23;20010;-70
2023/06/28 04:33:22;;;;;;;14.70;8.32;;;;;;;;;;2520169;23;20325;-70
2023/06/28 04:34:43;;;;;;;16.20;8.23;;;;;;;;;;2528969;23;20017;-70
2023/06/28 04:36:04;;;;;;;20.75;9.90;;;;;;;;;;2530420;23;20014;-70
2023/06/28 04:37:28;;;;;;;20.50;8.80;;;;;;;;;;2521043;23;20038;-70
2023/06/28 04:38:55;;;;;;;17.83;8.73;;;;;;;;;;2514485;23;20044;-70
2023/06/28 04:40:16;;;;;;;14.35;8.68;;;;;;;;;;2530266;23;20419;-69
2023/06/28 04:41:36;;;;;;;18.98;9.60;;;;;;;;;;2530552;23;20021;-70
2023/06/28 04:42:57;;;;;;;15.70;8.93;;;;;;;;;;2517632;23;20079;-70
2023/06/28 04:44:18;;;;;;;11.43;7.82;;;;;;;;;;2530332;23;20022;-70
2023/06/28 04:45:39;;;;;;;15.82;8.50;;;;;;;;;;2532228;23;20009;-70
2023/06/28 04:47:00;;;;;;;17.45;9.27;;;;;;;;;;2530121;23;20403;-70
2023/06/28 04:48:21;;;;;;;16.45;8.27;;;;;;;;;;2530642;23;20010;-70
2023/06/28 04:49:47;;;;;;;19.13;8.75;;;;;;;;;;2534296;23;20006;-70
2023/06/28 04:51:08;;;;;;;20.73;8.70;;;;;;;;;;2532671;23;20339;-70
2023/06/28 04:52:29;;;;;;;13.75;8.55;;;;;;;;;;2530968;23;20069;-70
2023/06/28 04:53:49;;;;;;;13.40;8.30;;;;;;;;;;2532576;23;20017;-70
2023/06/28 04:55:11;;;;;;;12.80;8.60;;;;;;;;;;2532847;23;20033;-70
2023/06/28 04:56:32;;;;;;;16.90;8.43;;;;;;;;;;2518319;23;20015;-70
2023/06/28 04:57:53;;;;;;;13.27;8.75;;;;;;;;;;2527280;23;20006;-70
2023/06/28 04:59:14;;;;;;;19.60;7.85;;;;;;;;;;2520637;23;20011;-70
2023/06/28 05:00:35;;;;;;;13.48;7.95;;;;;;;;;;2515620;23;20402;-70
2023/06/28 05:01:56;;;;;;;14.13;7.53;;;;;;;;;;2514227;23;20071;-70
2023/06/28 05:03:17;;;;;;;17.40;8.75;;;;;;;;;;2526457;23;20013;-70
2023/06/28 05:04:39;;;;;;;13.25;7.97;;;;;;;;;;2532836;23;20316;-71
2023/06/28 05:06:01;;;;;;;;;;;;;;;;;;2531675;23;20443;-72
2023/06/28 05:07:22;;;;;;;15.35;7.85;;;;;;;;;;2531220;23;20275;-71
2023/06/28 05:08:42;;;;;;;15.18;9.00;;;;;;;;;;2530144;23;20018;-72
2023/06/28 05:10:05;;;;;;;13.02;8.57;;;;;;;;;;2531769;23;20044;-71
2023/06/28 05:11:26;;;;;;;18.60;8.75;;;;;;;;;;2532627;23;20010;-71
2023/06/28 05:12:48;;;;;;;13.48;8.82;;;;;;;;;;2519133;23;20086;-71
2023/06/28 05:14:09;;;;;;;;;;;;;;;;;;2528397;23;20093;-72
2023/06/28 05:15:32;;;;;;;19.08;9.60;;;;;;;;;;2531142;23;19905;-71
2023/06/28 05:16:53;;;;;;;15.80;8.57;;;;;;;;;;2519869;23;20029;-71
2023/06/28 05:18:14;;;;;;;22.25;8.10;;;;;;;;;;2527404;23;20010;-71
2023/06/28 05:19:35;;;;;;;18.27;9.13;;;;;;;;;;2517619;23;20344;-71
2023/06/28 05:20:56;;;;;;;13.90;7.85;;;;;;;;;;2528161;23;20025;-71
2023/06/28 05:22:18;;;;;;;16.20;9.05;;;;;;;;;;2531977;23;20017;-72
2023/06/28 05:23:39;;;;;;;15.30;9.05;;;;;;;;;;2532742;23;20363;-70
2023/06/28 05:25:00;;;;;;;15.15;8.32;;;;;;;;;;2531967;23;20025;-71
2023/06/28 05:26:21;;;;;;;16.80;8.77;;;;;;;;;;2529955;23;20006;-70
2023/06/28 05:27:42;;;;;;;17.15;9.40;;;;;;;;;;2518494;23;20011;-70
2023/06/28 05:29:03;;;;;;;17.80;9.27;;;;;;;;;;2514635;23;20232;-70
2023/06/28 05:30:24;;;;;;;20.20;10.15;;;;;;;;;;2526690;23;20014;-70
2023/06/28 05:31:45;;;;;;;18.35;8.65;;;;;;;;;;2530964;23;20010;-70
2023/06/28 05:33:05;;;;;;;17.40;8.18;;;;;;;;;;2530801;23;20010;-70
2023/06/28 05:34:27;;;;;;;16.02;9.63;;;;;;;;;;2533787;23;20352;-70
2023/06/28 05:35:49;;;;;;;17.13;9.20;;;;;;;;;;2530612;23;20021;-71
2023/06/28 05:37:10;;;;;;;20.40;9.98;;;;;;;;;;2518477;23;20398;-70
2023/06/28 05:38:30;;;;;;;13.85;8.52;;;;;;;;;;2519497;23;20011;-72
2023/06/28 05:39:52;;;;;;;12.32;8.10;;;;;;;;;;2527545;23;20018;-71
2023/06/28 05:41:14;;;;;;;25.67;10.40;;;;;;;;;;2517075;23;20014;-71
2023/06/28 05:42:35;;;;;;;15.95;9.20;;;;;;;;;;2527131;23;20017;-71
2023/06/28 05:43:56;;;;;;;20.58;10.50;;;;;;;;;;2529915;23;20036;-71
2023/06/28 05:45:17;;;;;;;14.98;8.63;;;;;;;;;;2531217;23;20024;-71
2023/06/28 05:46:38;;;;;;;16.15;9.07;;;;;;;;;;2516990;23;20448;-71
2023/06/28 05:48:00;;;;;;;19.85;9.85;;;;;;;;;;2513963;23;20014;-77
2023/06/28 05:49:20;;;;;;;16.45;9.05;;;;;;;;;;2530369;23;20033;-77
2023/06/28 05:50:42;;;;;;;25.92;12.00;;;;;;;;;;2529449;23;20006;-77
2023/06/28 05:52:04;;;;;;;26.10;11.15;;;;;;;;;;2530566;23;20021;-77
2023/06/28 05:53:25;;;;;;;23.45;10.82;;;;;;;;;;2529557;23;20010;-77
2023/06/28 05:54:46;;;;;;;23.50;11.30;;;;;;;;;;2524835;23;20476;-77
2023/06/28 05:56:07;;;;;;;16.48;10.60;;;;;;;;;;2526212;23;20065;-77
2023/06/28 05:57:28;;;;;;;20.48;10.20;;;;;;;;;;2528872;23;20032;-77
2023/06/28 05:58:49;;;;;;;22.80;11.10;;;;;;;;;;2529889;23;20478;-77
2023/06/28 06:00:11;;;;;;;17.00;9.68;;;;;;;;;;2525880;23;20014;-77
2023/06/28 06:01:32;;;;;;;17.58;10.00;;;;;;;;;;2527870;23;20356;-77
2023/06/28 06:02:53;;;;;;;28.98;11.13;;;;;;;;;;2529942;23;20077;-78
2023/06/28 06:04:13;;;;;;;19.13;9.63;;;;;;;;;;2532986;23;20011;-76
2023/06/28 06:05:34;;;;;;;19.88;10.00;;;;;;;;;;2531384;23;20020;-76
2023/06/28 06:06:55;;;;;;;23.23;11.02;;;;;;;;;;2527575;23;20076;-76
2023/06/28 06:08:16;;;;;;;21.77;10.57;;;;;;;;;;2528560;23;20081;-76
2023/06/28 06:09:37;;;;;;;18.40;9.07;;;;;;;;;;2530637;23;20010;-76
2023/06/28 06:10:58;;;;;;;24.88;10.80;;;;;;;;;;2531674;23;20005;-76
2023/06/28 06:12:19;;;;;;;18.10;10.15;;;;;;;;;;2532037;23;20006;-76
2023/06/28 06:13:40;;;;;;;25.70;11.30;;;;;;;;;;2530597;23;20022;-76
2023/06/28 06:15:01;;;;;;;24.52;10.48;;;;;;;;;;2530546;23;20017;-76
2023/06/28 06:16:21;;;;;;;20.02;9.32;;;;;;;;;;2525176;23;20013;-73
2023/06/28 06:17:42;;;;;;;18.45;10.32;;;;;;;;;;2532397;23;20017;-75
2023/06/28 06:19:03;;;;;;;18.30;10.40;;;;;;;;;;2531172;23;20470;-75
2023/06/28 06:20:24;;;;;;;19.70;10.82;;;;;;;;;;2529741;23;20014;-75
2023/06/28 06:21:45;;;;;;;20.52;10.10;;;;;;;;;;2529670;23;20010;-75
2023/06/28 06:23:06;;;;;;;22.80;12.45;;;;;;;;;;2528901;23;20010;-75
2023/06/28 06:24:27;;;;;;;17.10;9.40;;;;;;;;;;2526675;23;20364;-75
2023/06/28 06:25:48;;;;;;;18.70;10.05;;;;;;;;;;2532427;23;20392;-75
2023/06/28 06:27:09;;;;;;;22.20;10.65;;;;;;;;;;2531343;23;20041;-75
2023/06/28 06:28:29;;;;;;;23.65;11.23;;;;;;;;;;2530567;23;20049;-75
2023/06/28 06:29:50;;;;;;;19.73;9.82;;;;;;;;;;2532766;23;20017;-75
2023/06/28 06:31:13;;;;;;;19.10;10.50;;;;;;;;;;2532841;23;20462;-75
2023/06/28 06:32:34;;;;;;;16.13;9.98;;;;;;;;;;2531155;23;20510;-74
2023/06/28 06:34:01;;;;;;;26.15;11.30;;;;;;;;;;2524582;23;20009;-76
2023/06/28 06:35:23;;;;;;;16.13;9.68;;;;;;;;;;2528417;23;20022;-76
2023/06/28 06:36:44;;;;;;;;;;;;;;;;;;2527935;23;20010;-76
2023/06/28 06:38:05;;;;;;;15.00;9.73;;;;;;;;;;2526843;23;19900;-75
2023/06/28 06:39:26;;;;;;;24.08;11.05;;;;;;;;;;2526344;23;20006;-77
2023/06/28 06:40:48;;;;;;;17.40;10.27;;;;;;;;;;2531090;23;20009;-76
2023/06/28 06:42:09;;;;;;;;;;;;;;;;;;2532783;23;20010;-76
2023/06/28 06:43:30;;;;;;;17.92;9.82;;;;;;;;;;2533512;23;19928;-76
2023/06/28 06:44:50;;;;;;;21.13;10.70;;;;;;;;;;2529791;23;20038;-76
2023/06/28 06:46:11;;;;;;;18.30;9.75;;;;;;;;;;2531164;23;20292;-76
2023/06/28 06:47:32;;;;;;;15.00;9.82;;;;;;;;;;2530661;23;20017;-76
2023/06/28 06:48:55;;;;;;;19.02;9.40;;;;;;;;;;2532926;23;20113;-76
2023/06/28 06:50:17;;;;;;;18.58;10.77;;;;;;;;;;2516952;23;20420;-76
2023/06/28 06:51:38;;;;;;;;;;;;;;;;;;2516835;23;20013;-76
2023/06/28 06:52:59;;;;;;;17.48;11.00;;;;;;;;;;2527731;23;19908;-76
2023/06/28 06:54:19;;;;;;;19.30;10.95;;;;;;;;;;2531123;23;20016;-76
2023/06/28 06:55:40;;;;;;;15.90;9.70;;;;;;;;;;2517283;23;20011;-76
2023/06/28 06:57:05;;;;;;;18.70;10.80;;;;;;;;;;2525575;23;20097;-76
2023/06/28 06:58:26;;;;;;;20.88;10.45;;;;;;;;;;2530354;23;20065;-76
2023/06/28 06:59:47;;;;;;;19.02;10.77;;;;;;;;;;2520488;23;20029;-76
2023/06/28 07:01:07;;;;;;;15.30;9.60;;;;;;;;;;2513115;23;20018;-76
2023/06/28 07:02:28;;;;;;;16.98;11.02;;;;;;;;;;2515427;23;20495;-77
2023/06/28 07:03:51;;;;;;;17.08;11.35;;;;;;;;;;2519320;23;20040;-74
2023/06/28 07:05:12;;;;;;;21.30;10.10;;;;;;;;;;2526087;23;20158;-75
2023/06/28 07:06:33;;;;;;;18.98;9.98;;;;;;;;;;2528944;23;20009;-76
2023/06/28 07:07:54;;;;;;;15.38;9.90;;;;;;;;;;2530458;23;20026;-74
2023/06/28 07:09:16;;;;;;;20.13;10.13;;;;;;;;;;2531154;23;20013;-74
2023/06/28 07:10:36;;;;;;;17.92;9.60;;;;;;;;;;2529607;23;20009;-74
2023/06/28 07:11:57;;;;;;;18.70;10.27;;;;;;;;;;2531112;23;20017;-74
2023/06/28 07:13:18;;;;;;;15.55;9.82;;;;;;;;;;2530088;23;20082;-75
2023/06/28 07:14:39;;;;;;;20.15;10.48;;;;;;;;;;2517115;23;20007;-75
2023/06/28 07:16:00;;;;;;;14.50;9.75;;;;;;;;;;2515104;23;20307;-75
2023/06/28 07:17:21;;;;;;;16.88;10.07;;;;;;;;;;2525162;23;20045;-75
2023/06/28 07:18:42;;;;;;;19.73;10.55;;;;;;;;;;2519948;23;20021;-75
2023/06/28 07:20:03;;;;;;;25.27;10.25;;;;;;;;;;2526932;23;20466;-75
2023/06/28 07:21:24;;;;;;;18.98;10.30;;;;;;;;;;2530836;23;20033;-75
2023/06/28 07:22:45;;;;;;;22.35;10.93;;;;;;;;;;2530242;23;20009;-75
2023/06/28 07:24:07;;;;;;;23.00;11.48;;;;;;;;;;2520008;23;20377;-75
2023/06/28 07:25:28;;;;;;;18.63;9.95;;;;;;;;;;2527687;23;20072;-75
2023/06/28 07:26:48;;;;;;;19.55;11.02;;;;;;;;;;2530772;23;20014;-75
2023/06/28 07:28:09;;;;;;;18.02;10.20;;;;;;;;;;2531793;23;20388;-75
2023/06/28 07:29:31;;;;;;;20.67;11.35;;;;;;;;;;2529330;23;20014;-75
2023/06/28 07:30:53;;;;;;;16.67;10.57;;;;;;;;;;2517653;23;20007;-75
2023/06/28 07:32:14;;;;;;;22.20;11.13;;;;;;;;;;2528558;23;20443;-75
2023/06/28 07:33:35;;;;;;;21.40;10.93;;;;;;;;;;2531022;23;20014;-76
2023/06/28 07:34:56;;;;;;;18.05;10.00;;;;;;;;;;2530877;23;20006;-76
2023/06/28 07:36:17;;;;;;;20.23;10.07;;;;;;;;;;2531263;23;20048;-76
2023/06/28 07:37:37;;;;;;;19.73;10.70;;;;;;;;;;2516540;23;20018;-76
2023/06/28 07:38:58;;;;;;;18.05;10.50;;;;;;;;;;2528506;23;20017;-76
2023/06/28 07:40:19;;;;;;;21.58;11.25;;;;;;;;;;2516961;23;20373;-76
2023/06/28 07:41:40;;;;;;;18.85;10.23;;;;;;;;;;2515834;23;20053;-76
2023/06/28 07:43:02;;;;;;;20.45;10.38;;;;;;;;;;2527230;23;20014;-74
2023/06/28 07:44:23;;;;;;;;;;;;;;;;;;2531019;23;20054;-74
2023/06/28 07:45:45;;;;;;;19.17;9.98;;;;;;;;;;2518461;23;19901;-76
2023/06/28 07:47:06;;;;;;;28.80;12.48;;;;;;;;;;2512247;23;20017;-76
2023/06/28 07:48:27;;;;;;;16.90;8.82;;;;;;;;;;2517207;23;20059;-77
2023/06/28 07:49:47;;;;;;;18.20;10.55;;;;;;;;;;2513145;23;20015;-76
2023/06/28 07:51:09;;;;;;;15.63;10.40;;;;;;;;;;2526862;23;20006;-77
2023/06/28 07:52:30;;;;;;;18.75;10.32;;;;;;;;;;2530811;23;20017;-77
2023/06/28 07:53:51;;;;;;;15.60;9.88;;;;;;;;;;2531055;23;20014;-76
2023/06/28 07:55:12;;;;;;;15.10;9.93;;;;;;;;;;2519752;23;20033;-77
2023/06/28 07:56:33;;;;;;;15.90;9.35;;;;;;;;;;2529063;23;20017;-76
2023/06/28 07:57:54;;;;;;;14.68;9.43;;;;;;;;;;2531208;23;20080;-77
2023/06/28 07:59:15;;;;;;;19.38;9.35;;;;;;;;;;2532666;23;20021;-77
2023/06/28 08:00:36;;;;;;;20.40;10.60;;;;;;;;;;2531063;23;20033;-77
2023/06/28 08:01:57;;;;;;;22.38;10.90;;;;;;;;;;2530308;23;20301;-77
2023/06/28 08:03:19;;;;;;;21.45;9.77;;;;;;;;;;2520870;23;20090;-76
2023/06/28 08:04:40;;;;;;;20.35;9.68;;;;;;;;;;2527896;23;20018;-76
2023/06/28 08:06:01;;;;;;;27.05;11.52;;;;;;;;;;2529587;23;20014;-77
2023/06/28 08:07:22;;;;;;;21.08;10.63;;;;;;;;;;2519596;23;20014;-76
2023/06/28 08:08:43;;;;;;;20.35;10.18;;;;;;;;;;2527920;23;20014;-77
2023/06/28 08:10:04;;;;;;;22.95;10.00;;;;;;;;;;2531638;23;20347;-76
2023/06/28 08:11:25;;;;;;;17.67;9.45;;;;;;;;;;2531443;23;20006;-74
2023/06/28 08:12:46;;;;;;;16.70;9.57;;;;;;;;;;2517738;23;20051;-75
2023/06/28 08:14:07;;;;;;;20.30;9.50;;;;;;;;;;2518239;23;20089;-75
2023/06/28 08:15:28;;;;;;;17.45;10.20;;;;;;;;;;2528245;23;20014;-74
2023/06/28 08:16:49;;;;;;;19.25;11.15;;;;;;;;;;2529453;23;20037;-74
2023/06/28 08:18:10;;;;;;;21.80;10.70;;;;;;;;;;2531235;23;20018;-75
2023/06/28 08:19:31;;;;;;;17.45;9.85;;;;;;;;;;2531051;23;20018;-75
2023/06/28 08:20:51;;;;;;;21.20;10.82;;;;;;;;;;2533190;23;20439;-75
2023/06/28 08:22:12;;;;;;;16.80;9.70;;;;;;;;;;2520239;23;20240;-75
2023/06/28 08:23:33;;;;;;;15.93;10.25;;;;;;;;;;2526778;23;20014;-75
2023/06/28 08:24:54;;;;;;;17.02;10.27;;;;;;;;;;2520444;23;20011;-75
2023/06/28 08:26:15;;;;;;;23.50;11.00;;;;;;;;;;2514710;23;20348;-75
2023/06/28 08:27:37;;;;;;;16.13;10.23;;;;;;;;;;2515705;23;20018;-75
2023/06/28 08:28:57;;;;;;;18.67;9.07;;;;;;;;;;2526872;23;20450;-75
2023/06/28 08:30:18;;;;;;;19.88;10.50;;;;;;;;;;2529942;23;20006;-76
2023/06/28 08:31:39;;;;;;;20.90;9.65;;;;;;;;;;2530550;23;20021;-77
2023/06/28 08:33:00;;;;;;;17.48;9.18;;;;;;;;;;2534006;23;20009;-77
2023/06/28 08:34:21;;;;;;;19.08;9.00;;;;;;;;;;2520399;23;20082;-76
2023/06/28 08:35:42;;;;;;;19.55;9.98;;;;;;;;;;2528397;23;20396;-75
2023/06/28 08:37:03;;;;;;;24.02;11.13;;;;;;;;;;2529078;23;20039;-76
2023/06/28 08:38:24;;;;;;;15.00;8.55;;;;;;;;;;2530612;23;20021;-77
2023/06/28 08:39:45;;;;;;;17.20;8.75;;;;;;;;;;2519154;23;20014;-77
2023/06/28 08:41:06;;;;;;;20.58;9.20;;;;;;;;;;2513860;23;20010;-76
2023/06/28 08:42:28;;;;;;;18.23;10.18;;;;;;;;;;2528145;23;20017;-76
2023/06/28 08:43:50;;;;;;;15.93;8.45;;;;;;;;;;2517315;23;20117;-76
2023/06/28 08:45:12;;;;;;;18.45;9.88;;;;;;;;;;2515532;23;20423;-76